»·PEaware :: ASH5948 KSBP-KPHX

ASH5948 :: KSBP-KPHX

FLIGHT INFORMATION

Flight Status: Arrived
Operator:
Mesa Airlines
More flights by this operator :: More flights under this callsign
Pilot: Chandler Senior (807)
Aircraft: CANADAIR CL-600 CRJ-200
(CRJ2)
More flights by this aircraft type
Origin: KSBP San Luis Co Regl
United States
Destination: KPHX Phoenix Sky Harbor Intl
United States
More flights between these airports :: More routes between these airports
Route: FLW PMD J65 BLH HYDRR1
File this flight plan on PilotEdge
Remarks:
Altitude:
(Current/Filed)
29,000ft
Speed:
(Current/Filed)
300kts
Departed: 10-Jan-17 06:03 PM
Arrived: 10-Jan-17 07:14 PM
Distance/Time
Traveled:
441nm/1:11
Distance/Time
To Go:
Arrived

Flight Plot

Page will automatically refresh every two minutes.


Map Options




Map Legend


Flown Route
Filed Route
Departure Airport
Arrival Airport
Navaid (VOR, NDB)
Fix

Horizontal Profiles

Position Reports

Time Latitude Longitude Heading Altitude Ground
Speed
10-Jan-17 17:47 35.239362 -120.642052 121 216ft 0kts
10-Jan-17 17:48 35.239362 -120.642052 121 216ft 0kts
10-Jan-17 17:49 35.239362 -120.642052 121 216ft 0kts
10-Jan-17 17:50 35.239362 -120.642052 121 216ft 0kts
10-Jan-17 17:51 35.239362 -120.642052 121 216ft 0kts
10-Jan-17 17:52 35.239362 -120.642052 121 216ft 0kts
10-Jan-17 17:53 35.239362 -120.642052 121 216ft 0kts
10-Jan-17 17:54 35.239362 -120.642052 121 216ft 0kts
10-Jan-17 17:56 35.239354 -120.642053 121 216ft 0kts
10-Jan-17 17:57 35.239354 -120.642053 121 216ft 0kts
10-Jan-17 17:58 35.239354 -120.642053 121 216ft 0kts
10-Jan-17 17:59 35.239354 -120.642053 121 216ft 0kts
10-Jan-17 18:00 35.239354 -120.642053 121 216ft 0kts
10-Jan-17 18:01 35.240461 -120.644365 304 216ft 23kts
10-Jan-17 18:02 35.242461 -120.649078 195 216ft 11kts
10-Jan-17 18:03 35.233728 -120.634478 124 274ft 168kts
10-Jan-17 18:04 35.192006 -120.623690 192 3213ft 192kts
10-Jan-17 18:05 35.143266 -120.636922 192 5040ft 248kts
10-Jan-17 18:06 35.076861 -120.654925 192 6315ft 282kts
10-Jan-17 18:07 35.017390 -120.659366 154 8387ft 301kts
10-Jan-17 18:08 34.989006 -120.598636 85 10593ft 317kts
10-Jan-17 18:09 35.015734 -120.527083 75 13233ft 314kts
10-Jan-17 18:10 35.026892 -120.460112 80 15515ft 299kts
10-Jan-17 18:11 35.033250 -120.408591 81 17039ft 295kts
10-Jan-17 18:12 35.041262 -120.338490 82 17677ft 334kts
10-Jan-17 18:13 35.053790 -120.225937 82 19249ft 362kts
10-Jan-17 18:14 35.067145 -120.104596 82 21325ft 370kts
10-Jan-17 18:15 35.080260 -119.982112 86 23378ft 371kts
10-Jan-17 18:16 35.035975 -119.875703 117 25476ft 361kts
10-Jan-17 18:17 34.990689 -119.768922 117 27546ft 349kts
10-Jan-17 18:18 34.947258 -119.666348 117 28999ft 350kts
10-Jan-17 18:19 34.899828 -119.554230 117 29010ft 398kts
10-Jan-17 18:20 34.846865 -119.428916 116 29010ft 448kts
10-Jan-17 18:21 34.788808 -119.291401 117 28999ft 476kts
10-Jan-17 18:22 34.739484 -119.174453 117 28999ft 471kts
10-Jan-17 18:23 34.679924 -119.034810 117 29003ft 476kts
10-Jan-17 18:24 34.613738 -118.867403 104 29014ft 474kts
10-Jan-17 18:25 34.579094 -118.715607 105 28999ft 472kts
10-Jan-17 18:26 34.549818 -118.588515 105 28999ft 470kts
10-Jan-17 18:27 34.514653 -118.436743 105 28999ft 470kts
10-Jan-17 18:28 34.481157 -118.293034 106 29000ft 473kts
10-Jan-17 18:29 34.446141 -118.143698 106 29000ft 475kts
10-Jan-17 18:30 34.409906 -117.990101 106 29000ft 476kts
10-Jan-17 18:31 34.373335 -117.836026 106 29000ft 477kts
10-Jan-17 18:32 34.343412 -117.709780 108 28950ft 480kts
10-Jan-17 18:33 34.310457 -117.573271 109 29099ft 487kts
10-Jan-17 18:34 34.272599 -117.416475 109 29124ft 500kts
10-Jan-17 18:35 34.237944 -117.273686 110 29132ft 511kts
10-Jan-17 18:36 34.201444 -117.124244 110 29136ft 521kts
10-Jan-17 18:37 34.160290 -116.956864 109 29139ft 531kts
10-Jan-17 18:38 34.118200 -116.786492 108 29110ft 539kts
10-Jan-17 18:39 34.074921 -116.612596 108 29035ft 544kts
10-Jan-17 18:40 34.031223 -116.438190 108 29036ft 546kts
10-Jan-17 18:41 33.988639 -116.269379 109 29026ft 546kts
10-Jan-17 18:42 33.944213 -116.094399 109 29012ft 546kts
10-Jan-17 18:43 33.899956 -115.921223 109 29001ft 546kts
10-Jan-17 18:44 33.858122 -115.758549 109 29003ft 546kts
10-Jan-17 18:45 33.813167 -115.584867 109 29006ft 547kts
10-Jan-17 18:46 33.767733 -115.410403 109 29009ft 547kts
10-Jan-17 18:47 33.724454 -115.245287 110 29002ft 546kts
10-Jan-17 18:48 33.678737 -115.071996 109 29012ft 545kts
10-Jan-17 18:49 33.632880 -114.899206 109 29018ft 544kts
10-Jan-17 18:50 33.589239 -114.725929 104 29017ft 544kts
10-Jan-17 18:51 33.555177 -114.550673 104 29014ft 545kts
10-Jan-17 18:52 33.521698 -114.379658 104 27165ft 504kts
10-Jan-17 18:53 33.493436 -114.236370 105 25186ft 458kts
10-Jan-17 18:54 33.465622 -114.096291 105 24005ft 423kts
10-Jan-17 18:55 33.437128 -113.954254 105 24001ft 461kts
10-Jan-17 18:56 33.406108 -113.799868 105 23990ft 497kts
10-Jan-17 18:57 33.373812 -113.640137 105 22594ft 488kts
10-Jan-17 18:58 33.343162 -113.489658 105 20511ft 450kts
10-Jan-17 18:59 33.318196 -113.350210 103 18385ft 425kts
10-Jan-17 19:00 33.297112 -113.227245 101 16268ft 408kts
10-Jan-17 19:01 33.278582 -113.099215 101 15011ft 377kts
10-Jan-17 19:02 33.276683 -112.979540 89 14314ft 375kts
10-Jan-17 19:03 33.279653 -112.857728 89 12273ft 358kts
10-Jan-17 19:04 33.306389 -112.752551 62 10396ft 319kts
10-Jan-17 19:05 33.340462 -112.662162 61 9591ft 325kts
10-Jan-17 19:06 33.379217 -112.560519 61 8264ft 338kts
10-Jan-17 19:07 33.415734 -112.461465 63 7034ft 317kts
10-Jan-17 19:08 33.428427 -112.363067 86 5931ft 298kts
10-Jan-17 19:09 33.429792 -112.278800 80 4897ft 252kts
10-Jan-17 19:10 33.432125 -112.195848 86 3398ft 230kts
10-Jan-17 19:11 33.437431 -112.124346 81 2537ft 197kts
10-Jan-17 19:12 33.441012 -112.062881 90 1620ft 168kts
10-Jan-17 19:13 33.440855 -112.012091 89 1124ft 108kts
10-Jan-17 19:14 33.438989 -111.999832 121 1128ft 16kts
10-Jan-17 19:15 33.438334 -111.999547 168 1128ft 0kts
10-Jan-17 19:16 33.438334 -111.999547 168 1128ft 0kts

Navigation Log

Ident Type
1. KSBP Airport
2. FLW Navaid
3. PMD Navaid
4. DECAS Fix
5. BLH Navaid
6. BLH Navaid
7. SCOLE Fix
8. SPINK Fix
9. SNRRA Fix
10. SWOON Fix
11. HYDRR Fix
12. GEELA Fix
13. PUNNT Fix
14. TEICH Fix
15. TESLE Fix
16. FALGO Fix
17. CAGOR Fix
18. FOWLE Fix
19. KPHX Airport